createdAt,value
2022-10-17T00:00:11.819Z,9.88
2022-10-17T00:02:38.627Z,9.05
2022-10-17T00:05:05.809Z,9.80
2022-10-17T00:07:32.757Z,9.10
2022-10-17T00:10:00.915Z,9.48
2022-10-17T00:12:27.790Z,9.75
2022-10-17T00:14:54.615Z,9.68
2022-10-17T00:17:21.397Z,8.90
2022-10-17T00:19:48.185Z,8.75
2022-10-17T00:22:15.106Z,8.82
2022-10-17T00:24:41.896Z,8.90
2022-10-17T00:27:10.022Z,8.32
2022-10-17T00:29:36.789Z,8.77
2022-10-17T00:32:03.594Z,7.78
2022-10-17T00:34:31.139Z,8.38
2022-10-17T00:36:57.992Z,8.60
2022-10-17T00:39:24.882Z,8.45
2022-10-17T00:41:51.638Z,8.50
2022-10-17T00:44:59.515Z,8.20
2022-10-17T00:47:26.555Z,8.07
2022-10-17T00:49:53.417Z,8.18
2022-10-17T00:52:25.206Z,9.00
2022-10-17T00:54:56.556Z,8.20
2022-10-17T00:57:23.706Z,7.75
2022-10-17T00:59:52.893Z,7.80
2022-10-17T01:02:22.341Z,7.25
2022-10-17T01:04:51.894Z,7.55
2022-10-17T01:07:18.791Z,8.95
2022-10-17T01:09:47.234Z,7.57
2022-10-17T01:12:21.252Z,8.52
2022-10-17T01:15:02.921Z,8.40
2022-10-17T01:17:38.155Z,8.18
2022-10-17T01:20:53.223Z,7.57
2022-10-17T01:23:37.366Z,8.50
2022-10-17T01:29:04.068Z,8.20
2022-10-17T01:31:39.104Z,7.78
2022-10-17T01:34:12.842Z,8.10
2022-10-17T01:39:17.311Z,7.82
2022-10-17T01:41:49.708Z,8.52
2022-10-17T01:44:22.118Z,8.85
2022-10-17T01:46:54.732Z,8.05
2022-10-17T01:49:26.327Z,8.05
2022-10-17T01:51:57.100Z,7.90
2022-10-17T01:54:27.838Z,8.40
2022-10-17T01:56:59.805Z,7.55
2022-10-17T01:59:34.441Z,7.90
2022-10-17T02:02:03.179Z,8.13
2022-10-17T02:04:30.116Z,9.05
2022-10-17T02:06:56.878Z,8.07
2022-10-17T02:09:25.926Z,7.80
2022-10-17T02:12:08.747Z,8.32
2022-10-17T02:14:45.650Z,8.02
2022-10-17T02:17:26.527Z,8.07
2022-10-17T02:20:03.030Z,8.35
2022-10-17T02:22:39.105Z,8.45
2022-10-17T02:25:14.322Z,8.88
2022-10-17T02:27:48.844Z,8.88
2022-10-17T02:30:23.558Z,9.20
2022-10-17T02:32:58.927Z,8.73
2022-10-17T02:35:29.569Z,8.30
2022-10-17T02:37:58.342Z,8.82
2022-10-17T02:40:27.940Z,9.50
2022-10-17T02:42:55.704Z,9.10
2022-10-17T02:45:26.381Z,8.18
2022-10-17T02:48:00.819Z,8.05
2022-10-17T02:50:37.094Z,8.25
2022-10-17T02:53:09.494Z,9.35
2022-10-17T02:55:40.945Z,8.68
2022-10-17T02:58:12.353Z,9.15
2022-10-17T03:00:40.600Z,8.05
2022-10-17T03:03:21.797Z,8.45
2022-10-17T03:05:48.697Z,8.52
2022-10-17T03:08:15.465Z,9.07
2022-10-17T03:10:42.186Z,8.30
2022-10-17T03:13:08.947Z,8.80
2022-10-17T03:15:36.070Z,8.38
2022-10-17T03:18:02.925Z,8.18
2022-10-17T03:20:31.073Z,7.88
2022-10-17T03:22:57.881Z,9.05
2022-10-17T03:25:24.876Z,7.68
2022-10-17T03:27:51.772Z,7.75
2022-10-17T03:30:18.627Z,7.40
2022-10-17T03:32:45.401Z,7.78
2022-10-17T03:35:15.046Z,8.63
2022-10-17T03:37:43.389Z,8.43
2022-10-17T03:40:11.043Z,7.30
2022-10-17T03:42:37.812Z,7.57
2022-10-17T03:45:05.771Z,8.15
2022-10-17T03:47:32.862Z,7.68
2022-10-17T03:49:59.814Z,6.95
2022-10-17T03:52:26.586Z,8.05
2022-10-17T03:54:54.839Z,7.63
2022-10-17T03:57:21.605Z,7.65
2022-10-17T03:59:50.603Z,7.20
2022-10-17T04:02:17.532Z,6.78
2022-10-17T04:04:44.438Z,7.40
2022-10-17T04:07:11.229Z,6.85
2022-10-17T04:09:38.078Z,7.30
2022-10-17T04:12:06.459Z,7.60
2022-10-17T04:14:33.282Z,7.60
2022-10-17T04:17:00.044Z,7.18
2022-10-17T04:19:26.856Z,6.68
2022-10-17T04:21:53.639Z,7.00
2022-10-17T04:24:20.952Z,7.47
2022-10-17T04:26:50.081Z,8.00
2022-10-17T04:29:18.254Z,7.35
2022-10-17T04:31:45.034Z,7.70
2022-10-17T04:34:14.179Z,7.78
2022-10-17T04:36:41.178Z,7.75
2022-10-17T04:39:08.074Z,7.22
2022-10-17T04:41:34.920Z,8.05
2022-10-17T04:44:01.774Z,6.78
2022-10-17T04:46:30.124Z,7.78
2022-10-17T04:48:57.361Z,8.43
2022-10-17T04:51:26.512Z,7.95
2022-10-17T04:53:53.589Z,8.50
2022-10-17T04:56:22.646Z,7.53
2022-10-17T04:58:50.453Z,8.70
2022-10-17T05:01:19.442Z,8.55
2022-10-17T05:03:48.305Z,8.30
2022-10-17T05:06:17.701Z,9.07
2022-10-17T05:08:45.202Z,7.97
2022-10-17T05:11:19.678Z,8.25
2022-10-17T05:13:50.690Z,8.10
2022-10-17T05:16:17.522Z,8.55
2022-10-17T05:18:44.349Z,8.73
2022-10-17T05:21:12.538Z,8.73
2022-10-17T05:23:39.328Z,9.52
2022-10-17T05:26:06.189Z,10.30
2022-10-17T05:28:33.968Z,9.68
2022-10-17T05:31:03.451Z,10.85
2022-10-17T05:33:30.457Z,10.63
2022-10-17T05:35:57.399Z,11.65
2022-10-17T05:38:26.217Z,9.93
2022-10-17T05:40:57.733Z,10.90
2022-10-17T05:43:24.755Z,11.02
2022-10-17T05:45:54.486Z,8.82
2022-10-17T05:48:21.917Z,9.70
2022-10-17T05:50:48.884Z,10.15
2022-10-17T05:53:16.141Z,9.52
2022-10-17T05:55:44.389Z,9.65
2022-10-17T05:58:17.720Z,9.20
2022-10-17T06:00:49.566Z,10.02
2022-10-17T06:03:16.441Z,10.13
2022-10-17T06:05:43.331Z,11.32
2022-10-17T06:08:10.050Z,10.98
2022-10-17T06:10:36.857Z,10.18
2022-10-17T06:13:05.173Z,10.32
2022-10-17T06:15:32.017Z,10.32
2022-10-17T06:17:58.836Z,9.45
2022-10-17T06:20:25.687Z,10.45
2022-10-17T06:22:52.475Z,11.02
2022-10-17T06:25:19.417Z,10.23
2022-10-17T06:27:46.421Z,10.75
2022-10-17T06:30:14.586Z,9.88
2022-10-17T06:32:41.981Z,9.85
2022-10-17T06:35:09.051Z,10.55
2022-10-17T06:37:37.130Z,9.55
2022-10-17T06:40:05.160Z,10.98
2022-10-17T06:42:32.086Z,8.73
2022-10-17T06:44:58.884Z,8.95
2022-10-17T06:47:27.286Z,10.85
2022-10-17T06:49:54.229Z,11.07
2022-10-17T06:52:21.279Z,10.30
2022-10-17T06:54:48.057Z,10.20
2022-10-17T06:57:17.485Z,10.73
2022-10-17T06:59:44.229Z,10.52
2022-10-17T07:02:11.888Z,10.95
2022-10-17T07:04:40.502Z,9.82
2022-10-17T07:07:07.307Z,9.43
2022-10-17T07:09:34.540Z,10.75
2022-10-17T07:12:01.487Z,9.90
2022-10-17T07:14:32.112Z,9.95
2022-10-17T07:16:59.475Z,10.50
2022-10-17T07:19:27.177Z,10.63
2022-10-17T07:21:55.690Z,10.82
2022-10-17T07:24:22.497Z,10.77
2022-10-17T07:26:49.431Z,10.13
2022-10-17T07:29:16.445Z,10.43
2022-10-17T07:31:45.610Z,10.45
2022-10-17T07:34:12.642Z,11.38
2022-10-17T07:36:39.640Z,10.10
2022-10-17T07:39:07.882Z,11.55
2022-10-17T07:41:34.741Z,10.40
2022-10-17T07:44:01.601Z,10.20
2022-10-17T07:46:28.408Z,10.20
2022-10-17T07:48:55.336Z,10.55
2022-10-17T07:51:22.241Z,11.43
2022-10-17T07:53:52.425Z,10.88
2022-10-17T07:56:24.618Z,10.32
2022-10-17T07:58:52.337Z,11.18
2022-10-17T08:01:19.275Z,10.25
2022-10-17T08:03:48.653Z,10.85
2022-10-17T08:06:16.352Z,10.40
2022-10-17T08:08:43.717Z,10.57
2022-10-17T08:11:13.404Z,10.40
2022-10-17T08:13:42.344Z,11.38
2022-10-17T08:16:11.788Z,11.40
2022-10-17T08:18:40.052Z,10.35
2022-10-17T08:21:11.270Z,10.60
2022-10-17T08:23:38.083Z,10.75
2022-10-17T08:26:08.187Z,9.93
2022-10-17T08:28:35.725Z,9.25
2022-10-17T08:31:05.190Z,10.90
2022-10-17T08:33:33.361Z,10.20
2022-10-17T08:36:00.402Z,9.70
2022-10-17T08:38:29.403Z,9.40
2022-10-17T08:41:01.462Z,9.68
2022-10-17T08:43:45.005Z,10.00
2022-10-17T08:48:48.066Z,8.88
2022-10-17T08:51:20.097Z,9.32
2022-10-17T08:53:53.909Z,10.05
2022-10-17T08:59:12.526Z,14.18
2022-10-17T09:01:48.464Z,15.48
2022-10-17T09:04:47.912Z,9.05
2022-10-17T09:07:21.661Z,9.48
2022-10-17T09:12:25.374Z,13.13
2022-10-17T09:15:12.499Z,11.23
2022-10-17T09:17:52.555Z,10.80
2022-10-17T09:20:22.598Z,13.25
2022-10-17T09:25:28.914Z,15.75
2022-10-17T09:28:04.443Z,14.68
2022-10-17T09:30:45.589Z,10.35
2022-10-17T09:33:28.293Z,11.15
2022-10-17T09:36:04.477Z,10.57
2022-10-17T09:38:39.204Z,11.23
2022-10-17T09:41:39.186Z,12.00
2022-10-17T09:44:13.755Z,13.07
2022-10-17T09:46:41.249Z,13.00
2022-10-17T09:49:17.573Z,11.85
2022-10-17T09:51:44.500Z,11.52
2022-10-17T09:54:20.872Z,12.40
2022-10-17T09:56:58.688Z,11.25
2022-10-17T09:59:33.705Z,11.65
2022-10-17T10:02:09.152Z,10.35
2022-10-17T10:04:59.786Z,10.40
2022-10-17T10:07:29.266Z,10.45
2022-10-17T10:09:57.238Z,9.75
2022-10-17T10:12:26.772Z,8.88
2022-10-17T10:14:55.395Z,9.32
2022-10-17T10:17:35.468Z,8.48
2022-10-17T10:20:23.967Z,7.47
2022-10-17T10:23:06.148Z,8.23
2022-10-17T10:25:33.603Z,8.13
2022-10-17T10:28:01.552Z,9.70
2022-10-17T10:30:31.433Z,8.80
2022-10-17T10:33:00.929Z,8.45
2022-10-17T10:35:33.580Z,8.85
2022-10-17T10:38:03.045Z,8.13
2022-10-17T10:40:33.425Z,7.68
2022-10-17T10:43:05.447Z,7.40
2022-10-17T10:45:48.153Z,6.85
2022-10-17T10:48:23.794Z,7.22
2022-10-17T10:50:56.301Z,6.28
2022-10-17T10:53:35.947Z,8.95
2022-10-17T10:56:10.896Z,8.27
2022-10-17T10:58:46.860Z,7.90
2022-10-17T11:01:22.287Z,10.07
2022-10-17T11:04:00.259Z,8.52
2022-10-17T11:06:34.361Z,9.77
2022-10-17T11:09:13.048Z,6.85
2022-10-17T11:11:44.570Z,7.25
2022-10-17T11:14:18.703Z,6.88
2022-10-17T11:16:51.898Z,7.97
2022-10-17T11:19:25.416Z,7.32
2022-10-17T11:22:05.468Z,6.35
2022-10-17T11:24:38.241Z,6.40
2022-10-17T11:27:07.025Z,5.82
2022-10-17T11:29:36.784Z,5.28
2022-10-17T11:32:08.492Z,6.40
2022-10-17T11:34:40.913Z,5.60
2022-10-17T11:37:16.549Z,5.40
2022-10-17T11:39:49.544Z,5.82
2022-10-17T11:42:21.797Z,4.20
2022-10-17T11:44:52.360Z,4.72
2022-10-17T11:47:31.638Z,5.68
2022-10-17T11:52:57.296Z,4.38
2022-10-17T11:55:26.183Z,4.88
2022-10-17T11:58:17.696Z,5.68
2022-10-17T12:00:55.251Z,5.10
2022-10-17T12:03:41.325Z,4.53
2022-10-17T12:06:17.197Z,5.47
2022-10-17T12:08:53.065Z,4.22
2022-10-17T12:11:34.628Z,4.88
2022-10-17T12:14:05.854Z,3.70
2022-10-17T12:16:47.853Z,4.90
2022-10-17T12:19:35.230Z,4.20
2022-10-17T12:22:19.772Z,4.82
2022-10-17T12:24:56.077Z,4.10
2022-10-17T12:27:36.333Z,4.53
2022-10-17T12:30:07.605Z,6.72
2022-10-17T12:32:53.358Z,5.60
2022-10-17T12:35:23.845Z,4.93
2022-10-17T12:38:15.187Z,4.90
2022-10-17T12:40:55.354Z,4.82
2022-10-17T12:43:47.095Z,4.00
2022-10-17T12:46:54.861Z,3.85
2022-10-17T12:49:38.262Z,4.10
2022-10-17T12:52:22.021Z,3.45
2022-10-17T12:55:07.272Z,3.65
2022-10-17T12:57:44.883Z,3.38
2022-10-17T13:00:19.997Z,3.83
2022-10-17T13:02:49.026Z,3.95
2022-10-17T13:05:22.294Z,9.20
2022-10-17T13:07:50.143Z,8.48
2022-10-17T13:10:21.598Z,6.93
2022-10-17T13:12:51.309Z,4.53
2022-10-17T13:15:20.121Z,3.45
2022-10-17T13:17:56.240Z,3.45
2022-10-17T13:20:30.598Z,2.67
2022-10-17T13:22:59.323Z,2.95
2022-10-17T13:25:27.601Z,2.80
2022-10-17T13:28:11.966Z,2.85
2022-10-17T13:30:38.759Z,2.72
2022-10-17T13:33:27.874Z,3.08
2022-10-17T13:36:00.422Z,2.67
2022-10-17T13:38:30.312Z,2.50
2022-10-17T13:41:05.909Z,2.88
2022-10-17T13:43:45.104Z,2.92
2022-10-17T13:46:36.650Z,2.75
2022-10-17T13:49:11.809Z,2.88
2022-10-17T13:51:44.336Z,3.03
2022-10-17T13:54:18.699Z,2.97
2022-10-17T13:56:56.534Z,2.10
2022-10-17T13:59:28.459Z,2.53
2022-10-17T14:01:56.022Z,2.47
2022-10-17T14:04:22.803Z,1.80
2022-10-17T14:06:52.147Z,2.10
2022-10-17T14:09:22.723Z,2.35
2022-10-17T14:12:00.076Z,1.70
2022-10-17T14:14:30.423Z,1.98
2022-10-17T14:17:01.368Z,1.50
2022-10-17T14:19:33.201Z,1.40
2022-10-17T14:22:17.515Z,1.83
2022-10-17T14:24:44.638Z,1.70
2022-10-17T14:27:26.377Z,2.03
2022-10-17T14:29:58.483Z,1.95
2022-10-17T14:32:25.477Z,2.13
2022-10-17T14:34:58.347Z,2.28
2022-10-17T14:37:43.790Z,1.70
2022-10-17T14:40:16.713Z,2.35
2022-10-17T14:42:44.775Z,1.63
2022-10-17T14:45:23.492Z,2.08
2022-10-17T14:47:51.644Z,1.75
2022-10-17T14:50:24.876Z,2.50
2022-10-17T14:53:03.792Z,2.55
2022-10-17T14:55:33.250Z,2.55
2022-10-17T14:58:00.149Z,1.98
2022-10-17T15:00:28.554Z,2.65
2022-10-17T15:02:56.217Z,2.33
2022-10-17T15:05:23.643Z,2.22
2022-10-17T15:07:50.671Z,2.10
2022-10-17T15:10:25.866Z,2.40
2022-10-17T15:12:59.271Z,2.70
2022-10-17T15:15:33.239Z,2.88
2022-10-17T15:18:00.569Z,2.63
2022-10-17T15:20:29.506Z,2.55
2022-10-17T15:22:57.597Z,2.65
2022-10-17T15:25:25.070Z,2.92
2022-10-17T15:27:52.277Z,2.80
2022-10-17T15:30:22.772Z,2.92
2022-10-17T15:32:51.572Z,3.78
2022-10-17T15:35:19.094Z,3.08
2022-10-17T15:37:49.092Z,3.15
2022-10-17T15:40:18.777Z,3.75
2022-10-17T15:42:45.586Z,4.50
2022-10-17T15:45:16.063Z,4.43
2022-10-17T15:47:49.448Z,3.58
2022-10-17T15:50:18.452Z,2.65
2022-10-17T15:52:47.080Z,4.07
2022-10-17T15:55:13.961Z,3.58
2022-10-17T15:57:44.093Z,4.38
2022-10-17T16:00:16.810Z,3.78
2022-10-17T16:02:43.971Z,3.77
2022-10-17T16:05:14.962Z,3.25
2022-10-17T16:07:43.471Z,2.95
2022-10-17T16:10:10.299Z,3.03
2022-10-17T16:12:41.264Z,2.85
2022-10-17T16:15:13.220Z,3.00
2022-10-17T16:17:40.301Z,3.22
2022-10-17T16:20:08.164Z,3.20
2022-10-17T16:22:38.134Z,3.00
2022-10-17T16:25:10.162Z,5.03
2022-10-17T16:27:38.067Z,5.22
2022-10-17T16:30:07.058Z,4.63
2022-10-17T16:32:34.197Z,5.13
2022-10-17T16:35:01.566Z,5.55
2022-10-17T16:37:28.365Z,3.80
2022-10-17T16:39:55.169Z,3.47
2022-10-17T16:42:24.951Z,4.05
2022-10-17T16:44:51.899Z,3.60
2022-10-17T16:47:19.708Z,4.53
2022-10-17T16:49:46.556Z,5.05
2022-10-17T16:52:17.078Z,4.35
2022-10-17T16:54:46.622Z,3.80
2022-10-17T16:57:13.568Z,4.38
2022-10-17T16:59:41.948Z,4.88
2022-10-17T17:02:10.392Z,4.70
2022-10-17T17:04:37.307Z,5.10
2022-10-17T17:07:04.247Z,5.93
2022-10-17T17:09:31.023Z,5.25
2022-10-17T17:11:57.767Z,4.50
2022-10-17T17:14:24.649Z,5.45
2022-10-17T17:16:53.028Z,4.75
2022-10-17T17:19:20.508Z,5.38
2022-10-17T17:21:51.059Z,5.47
2022-10-17T17:24:21.021Z,5.78
2022-10-17T17:26:51.468Z,5.60
2022-10-17T17:29:18.200Z,5.63
2022-10-17T17:31:45.006Z,5.57
2022-10-17T17:34:17.172Z,6.25
2022-10-17T17:36:45.230Z,5.03
2022-10-17T17:39:14.612Z,5.22
2022-10-17T17:41:42.493Z,5.47
2022-10-17T17:44:15.585Z,5.88
2022-10-17T17:46:43.935Z,5.47
2022-10-17T17:49:11.694Z,6.63
2022-10-17T17:51:41.616Z,5.78
2022-10-17T17:54:11.498Z,6.95
2022-10-17T17:56:39.136Z,6.35
2022-10-17T17:59:06.025Z,6.70
2022-10-17T18:01:39.035Z,6.63
2022-10-17T18:04:08.734Z,5.97
2022-10-17T18:06:36.586Z,6.50
2022-10-17T18:09:06.545Z,6.53
2022-10-17T18:11:33.794Z,7.00
2022-10-17T18:14:01.925Z,6.60
2022-10-17T18:16:30.137Z,7.07
2022-10-17T18:19:00.318Z,8.15
2022-10-17T18:21:29.358Z,7.03
2022-10-17T18:23:56.220Z,6.97
2022-10-17T18:26:24.536Z,6.45
2022-10-17T18:28:51.448Z,7.05
2022-10-17T18:31:24.006Z,7.47
2022-10-17T18:33:52.138Z,7.22
2022-10-17T18:36:19.726Z,7.70
2022-10-17T18:38:46.537Z,7.50
2022-10-17T18:41:15.500Z,7.07
2022-10-17T18:43:45.415Z,7.63
2022-10-17T18:46:15.506Z,7.88
2022-10-17T18:48:44.502Z,8.40
2022-10-17T18:51:12.156Z,7.55
2022-10-17T18:53:39.897Z,7.10
2022-10-17T18:56:06.985Z,7.20
2022-10-17T18:58:33.741Z,7.97
2022-10-17T19:01:04.156Z,7.93
2022-10-17T19:03:31.375Z,9.27
2022-10-17T19:06:01.286Z,10.43
2022-10-17T19:08:28.112Z,8.60
2022-10-17T19:10:54.836Z,7.70
2022-10-17T19:13:21.826Z,7.45
2022-10-17T19:15:48.699Z,8.55
2022-10-17T19:18:17.015Z,7.47
2022-10-17T19:20:43.861Z,7.13
2022-10-17T19:23:10.571Z,6.82
2022-10-17T19:25:37.328Z,8.32
2022-10-17T19:28:04.337Z,7.97
2022-10-17T19:30:31.141Z,7.40
2022-10-17T19:32:57.886Z,9.85
2022-10-17T19:35:26.128Z,17.35
2022-10-17T19:37:52.914Z,13.45
2022-10-17T19:40:19.721Z,11.43
2022-10-17T19:42:46.483Z,12.13
2022-10-17T19:45:13.219Z,11.65
2022-10-17T19:47:40.050Z,11.20
2022-10-17T19:50:07.920Z,10.00
2022-10-17T19:52:36.119Z,11.35
2022-10-17T19:55:02.995Z,11.55
2022-10-17T19:57:29.787Z,13.15
2022-10-17T19:59:56.933Z,11.68
2022-10-17T20:02:23.702Z,12.38
2022-10-17T20:04:59.983Z,11.02
2022-10-17T20:07:39.408Z,13.75
2022-10-17T20:10:07.133Z,10.57
2022-10-17T20:12:34.030Z,11.52
2022-10-17T20:15:00.740Z,10.63
2022-10-17T20:17:27.666Z,12.85
2022-10-17T20:19:54.440Z,15.07
2022-10-17T20:22:21.261Z,12.98
2022-10-17T20:24:49.946Z,10.95
2022-10-17T20:27:16.733Z,10.05
2022-10-17T20:29:43.775Z,11.07
2022-10-17T20:32:10.544Z,10.98
2022-10-17T20:34:37.382Z,11.68
2022-10-17T20:37:04.427Z,11.75
2022-10-17T20:39:31.268Z,10.60
2022-10-17T20:41:59.415Z,10.55
2022-10-17T20:44:26.194Z,10.50
2022-10-17T20:47:01.718Z,11.52
2022-10-17T20:49:30.478Z,11.65
2022-10-17T20:51:57.563Z,10.38
2022-10-17T20:54:24.624Z,12.23
2022-10-17T20:56:51.878Z,11.15
2022-10-17T20:59:20.619Z,15.77
2022-10-17T21:01:48.166Z,17.40
2022-10-17T21:04:44.668Z,17.40
2022-10-17T21:07:01.950Z,18.10
2022-10-17T21:09:28.752Z,16.45
2022-10-17T21:11:55.711Z,17.88
2022-10-17T21:14:25.337Z,16.85
2022-10-17T21:16:54.705Z,15.32
2022-10-17T21:19:21.909Z,16.42
2022-10-17T21:21:48.957Z,16.05
2022-10-17T21:24:18.158Z,14.25
2022-10-17T21:26:46.534Z,14.48
2022-10-17T21:29:14.337Z,15.50
2022-10-17T21:31:44.097Z,15.57
2022-10-17T21:34:13.283Z,16.52
2022-10-17T21:36:40.214Z,14.18
2022-10-17T21:41:34.723Z,14.43
2022-10-17T21:44:04.298Z,16.08
2022-10-17T21:46:31.878Z,14.02
2022-10-17T21:49:00.704Z,15.43
2022-10-17T21:51:27.700Z,15.50
2022-10-17T21:53:56.496Z,12.93
2022-10-17T21:56:30.742Z,14.32
2022-10-17T21:58:58.282Z,14.30
2022-10-17T22:01:27.696Z,15.43
2022-10-17T22:03:56.354Z,15.13
2022-10-17T22:06:39.622Z,14.38
2022-10-17T22:11:36.099Z,14.57
2022-10-17T22:14:05.239Z,12.38
2022-10-17T22:16:32.743Z,12.55
2022-10-17T22:19:04.853Z,13.43
2022-10-17T22:21:35.734Z,14.27
2022-10-17T22:24:05.782Z,14.07
2022-10-17T22:26:34.221Z,13.70
2022-10-17T22:29:02.269Z,12.57
2022-10-17T22:31:29.103Z,11.45
2022-10-17T22:33:56.196Z,13.77
2022-10-17T22:36:23.067Z,14.45
2022-10-17T22:38:51.461Z,13.50
2022-10-17T22:41:18.310Z,13.82
2022-10-17T22:43:45.134Z,13.70
2022-10-17T22:46:14.222Z,12.73
2022-10-17T22:48:41.123Z,12.82
2022-10-17T22:51:08.491Z,13.38
2022-10-17T22:53:37.318Z,13.73
2022-10-17T22:56:08.044Z,13.57
2022-10-17T22:58:36.093Z,13.35
2022-10-17T23:01:03.914Z,13.85
2022-10-17T23:03:32.233Z,15.00
2022-10-17T23:05:59.346Z,14.95
2022-10-17T23:08:27.034Z,14.95
2022-10-17T23:10:54.058Z,13.45
2022-10-17T23:13:22.345Z,13.38
2022-10-17T23:15:51.713Z,13.65
2022-10-17T23:18:18.834Z,12.70
2022-10-17T23:20:46.002Z,14.80
2022-10-17T23:23:13.093Z,14.48
2022-10-17T23:25:40.537Z,15.68
2022-10-17T23:28:08.745Z,15.10
2022-10-17T23:30:37.482Z,14.38
2022-10-17T23:33:04.942Z,14.55
2022-10-17T23:35:31.848Z,15.27
2022-10-17T23:37:58.686Z,15.02
2022-10-17T23:40:25.516Z,13.57
2022-10-17T23:42:52.275Z,14.25
2022-10-17T23:45:19.173Z,13.60
2022-10-17T23:47:47.408Z,14.27
2022-10-17T23:50:14.183Z,14.43
2022-10-17T23:52:40.922Z,14.05
2022-10-17T23:55:09.343Z,15.43
2022-10-17T23:57:36.122Z,14.63
